Epic Capri — 9HA2845 — position and weather

sailwx.info

Track history (hours):
 
Tides and Currents Weather Stations Pressure Air Temp Water Temp Dewpoint Dewpoint Depression Visibility Wind Speed Wind Dir Waves Ship Positions

Epic Capri

Last reported at 2015-Jul-03 20:05 UTC. Time now 2015-Jul-05 09:33 UTC.
Position N 38°50' W 025°22'.

Length 99 m; draft 4.8 m.

Type: Ship (hazmat cat A). MMSI: 256325000.

Date/timePositionNaut miles runAvg speedWind from/ knotsBaromVisibWave heightAir tempDewpointWater temp
2015-Jul-03 20:05N 38°50' W 025°22'510.0
2015-Jul-03 19:33N 38°49' W 025°29'24 9.9
2015-Jul-03 17:08N 38°45' W 025°59'610.0
2015-Jul-03 16:31N 38°44' W 026°07'10 9.8
2015-Jul-03 15:33N 38°42' W 026°19'1010.0
2015-Jul-03 14:33N 38°40' W 026°32'10 9.7
2015-Jul-03 13:34N 38°38' W 026°44'1410.2
2015-Jul-03 12:13N 38°36' W 027°01'6 9.1
2015-Jul-03 11:30N 38°34' W 027°09'9 9.5
2015-Jul-03 10:31N 38°32' W 027°21'9 9.8
2015-Jul-03 09:33N 38°30' W 027°32'10 9.5
2015-Jul-03 08:33N 38°29' W 027°44'10 9.7
2015-Jul-03 07:33N 38°31' W 027°56'1110.8
2015-Jul-03 06:33N 38°33' W 028°10'1110.6
2015-Jul-03 05:33N 38°35' W 028°23'9 8.8
2015-Jul-03 04:34N 38°33' W 028°34'3 2.8
2015-Jul-03 03:31N 38°32' W 028°37'0 0.0
2015-Jul-03 02:32N 38°32' W 028°37'0 0.0
2015-Jul-03 01:32N 38°32' W 028°37'0 0.0
2015-Jul-03 00:31N 38°32' W 028°37'0 0.0
2015-Jul-02 23:32N 38°32' W 028°37'0 0.0
2015-Jul-02 22:32N 38°32' W 028°37'0 0.0
2015-Jul-02 21:32N 38°32' W 028°37'0 0.3
2015-Jul-02 20:33N 38°32' W 028°37'7 6.5
2015-Jul-02 19:34N 38°35' W 028°30'8 7.9
2015-Jul-02 18:33N 38°35' W 028°20'8 7.9
2015-Jul-02 17:33N 38°33' W 028°10'8 7.6
2015-Jul-02 16:33N 38°31' W 028°00'7 7.5
2015-Jul-02 15:33N 38°30' W 027°51'7 7.1
2015-Jul-02 14:33N 38°29' W 027°42'7 6.6
2015-Jul-02 13:33N 38°29' W 027°34'7 7.0
2015-Jul-02 12:33N 38°31' W 027°25'10 7.2
2015-Jul-02 11:10N 38°33' W 027°12'5 7.2
2015-Jul-02 10:28N 38°35' W 027°07'7 7.0
2015-Jul-02 09:32N 38°39' W 027°00'5 1.1
2015-Jul-02 05:17N 38°43' W 027°03'1 0.1
2015-Jul-01 20:15N 38°43' W 027°03'21 4.3
2015-Jul-01 15:19N 38°29' W 026°44'6 8.1
2015-Jul-01 14:33N 38°24' W 026°38'8 8.1
2015-Jul-01 13:33N 38°19' W 026°31'8 8.3
2015-Jul-01 12:33N 38°13' W 026°23'8 8.4
2015-Jul-01 11:33N 38°07' W 026°16'8 8.3
2015-Jul-01 10:33N 38°01' W 026°08'8 8.1
2015-Jul-01 09:34N 37°55' W 026°01'8 8.2
2015-Jul-01 08:34N 37°49' W 025°54'8 7.9
2015-Jul-01 07:34N 37°44' W 025°47'6 5.7
2015-Jul-01 06:33N 37°44' W 025°40'0 0.3
2015-Jul-01 05:32N 37°44' W 025°40'0 0.0
2015-Jul-01 04:32N 37°44' W 025°40'0 0.0
2015-Jul-01 03:32N 37°44' W 025°40'0 0.0
2015-Jul-01 02:32N 37°44' W 025°40'0 0.0
2015-Jul-01 01:32N 37°44' W 025°40'0 0.0
2015-Jul-01 00:32N 37°44' W 025°40'0 0.0
2015-Jun-30 23:33N 37°44' W 025°40'0 0.0
2015-Jun-30 22:33N 37°44' W 025°40'0 0.0
2015-Jun-30 21:33N 37°44' W 025°40'0 0.0
2015-Jun-30 20:33N 37°44' W 025°40'0 0.0
2015-Jun-30 19:33N 37°44' W 025°40'0 0.0
2015-Jun-30 18:33N 37°44' W 025°40'0 0.0
2015-Jun-30 17:33N 37°44' W 025°40'0 0.0
2015-Jun-30 16:33N 37°44' W 025°40'0 0.0
2015-Jun-30 15:33N 37°44' W 025°40'0 0.0
2015-Jun-30 14:33N 37°44' W 025°40'0 0.0
2015-Jun-30 13:30N 37°44' W 025°40'0 0.0
2015-Jun-30 12:33N 37°44' W 025°40'0 0.0
2015-Jun-30 11:33N 37°44' W 025°40'0 0.1
2015-Jun-30 10:33N 37°44' W 025°40'1 1.2
2015-Jun-30 09:31N 37°44' W 025°38'0 0.0
2015-Jun-30 08:31N 37°44' W 025°38'0 0.0
2015-Jun-30 07:31N 37°44' W 025°38'0 0.0
2015-Jun-30 06:31N 37°44' W 025°38'0 0.0
2015-Jun-30 05:31N 37°44' W 025°38'0 0.0
2015-Jun-30 04:31N 37°44' W 025°38'0 0.0
2015-Jun-30 03:31N 37°44' W 025°38'0 0.0
2015-Jun-30 02:31N 37°44' W 025°38'0 0.0
2015-Jun-30 01:31N 37°44' W 025°38'0 0.0
2015-Jun-30 00:31N 37°44' W 025°38'0 0.0
2015-Jun-29 23:31N 37°44' W 025°38'0 0.0
2015-Jun-29 22:31N 37°44' W 025°38'0 0.0
2015-Jun-29 21:31N 37°44' W 025°38'0 0.0
2015-Jun-29 20:31N 37°44' W 025°38'0 0.0
2015-Jun-29 19:31N 37°44' W 025°38'0 0.1
2015-Jun-29 18:31N 37°44' W 025°38'0 0.0
2015-Jun-29 17:31N 37°44' W 025°38'5 4.7
2015-Jun-29 16:33N 37°42' W 025°34'9 8.6
2015-Jun-29 15:33N 37°41' W 025°23'9 9.0
2015-Jun-29 14:33N 37°40' W 025°11'9 8.8
2015-Jun-29 13:33N 37°40' W 025°00'9 8.7
2015-Jun-29 12:34N 37°41' W 024°49'8 8.3
2015-Jun-29 11:33N 37°41' W 024°39'8 8.4
2015-Jun-29 10:33N 37°41' W 024°28'9 8.8
2015-Jun-29 09:33N 37°41' W 024°17'9 8.8
2015-Jun-29 08:33N 37°41' W 024°06'9 9.0
2015-Jun-29 07:34N 37°41' W 023°55'9 8.8
2015-Jun-29 06:33N 37°42' W 023°44'73 8.7
2015-Jun-28 22:08N 37°43' W 022°11'362 8.9
2015-Jun-27 05:31N 37°49' W 014°33'57 9.3
2015-Jun-26 23:23N 37°50' W 013°20'64 8.8
2015-Jun-26 16:12N 37°51' W 011°60'6 9.5
2015-Jun-26 15:33N 37°51' W 011°52'12 9.7
2015-Jun-26 14:20N 37°51' W 011°37'28 9.5
2015-Jun-26 11:26N 37°51' W 011°02'8 9.4
2015-Jun-26 10:34N 37°52' W 010°52'13 9.5
2015-Jun-26 09:09N 37°52' W 010°35'6 9.5
2015-Jun-26 08:33N 37°52' W 010°28'9 9.3
2015-Jun-26 07:33N 37°52' W 010°16'9 9.5
2015-Jun-26 06:33N 37°53' W 010°04'9 9.2
2015-Jun-26 05:33N 37°52' W 009°52'9 9.4
2015-Jun-26 04:33N 37°52' W 009°41'9 9.2
2015-Jun-26 03:33N 37°53' W 009°29'9 9.1
2015-Jun-26 02:33N 37°52' W 009°17'9 9.5
2015-Jun-26 01:34N 37°53' W 009°06'10 9.7
2015-Jun-26 00:33N 37°55' W 008°54'2 1.7
2015-Jun-25 23:31N 37°57' W 008°53'0 0.0
2015-Jun-25 22:31N 37°57' W 008°53'0 0.0
2015-Jun-25 21:31N 37°57' W 008°53'0 0.0
2015-Jun-25 20:31N 37°57' W 008°53'0 0.0
2015-Jun-25 19:31N 37°57' W 008°53'0 0.0
2015-Jun-25 18:31N 37°57' W 008°53'0 0.0
2015-Jun-25 17:34N 37°57' W 008°53'0 0.0
2015-Jun-25 16:31N 37°57' W 008°53'0 0.0
2015-Jun-25 15:31N 37°57' W 008°53'0 0.0
2015-Jun-25 14:31N 37°57' W 008°53'0 0.0
2015-Jun-25 13:31N 37°57' W 008°53'0 0.0
2015-Jun-25 12:34N 37°57' W 008°53'0 0.0
2015-Jun-25 11:31N 37°57' W 008°53'0 0.0
2015-Jun-25 10:31N 37°57' W 008°53'0 0.0
2015-Jun-25 09:31N 37°57' W 008°53'0 0.0
2015-Jun-25 08:28N 37°57' W 008°53'0 0.0
2015-Jun-25 07:31N 37°57' W 008°53'0 0.0
2015-Jun-25 06:31N 37°57' W 008°53'0 0.0
2015-Jun-25 05:31N 37°57' W 008°53'0 0.0
2015-Jun-25 04:31N 37°57' W 008°53'0 0.0
2015-Jun-25 03:31N 37°57' W 008°53'0 0.0
2015-Jun-25 02:31N 37°57' W 008°53'0 0.0
2015-Jun-25 01:31N 37°57' W 008°53'2 2.1
2015-Jun-25 00:33N 37°56' W 008°55'9 9.5
2015-Jun-24 23:33N 38°02' W 009°04'1010.0
2015-Jun-24 22:33N 38°05' W 009°16'1110.2
2015-Jun-24 21:31N 38°09' W 009°29'1110.4
2015-Jun-24 20:27N 38°12' W 009°43'910.4
2015-Jun-24 19:33N 38°16' W 009°53'1010.0
2015-Jun-24 18:33N 38°20' W 010°05'2010.1
2015-Jun-24 16:32N 38°40' W 010°12'1010.6
2015-Jun-24 15:33N 38°50' W 010°12'1110.6
2015-Jun-24 14:32N 39°01' W 010°11'1110.5
2015-Jun-24 13:32N 39°10' W 010°05'  
Track history (hours):
 
Tides and Currents Weather Stations Pressure Air Temp Water Temp Dewpoint Dewpoint Depression Visibility Wind Speed Wind Dir Waves Ship Positions

Epic Capri

Last reported at 2015-Jul-03 20:05 UTC. Time now 2015-Jul-05 09:33 UTC.
Position N 38°50' W 025°22'.

Length 99 m; draft 4.8 m.

Type: Ship (hazmat cat A). MMSI: 256325000.

Date/timePositionNaut miles runAvg speedWind from/ knotsBaromVisibWave heightAir tempDewpointWater temp
2015-Jul-03 20:05N 38°50' W 025°22'510.0
2015-Jul-03 19:33N 38°49' W 025°29'24 9.9
2015-Jul-03 17:08N 38°45' W 025°59'610.0
2015-Jul-03 16:31N 38°44' W 026°07'10 9.8
2015-Jul-03 15:33N 38°42' W 026°19'1010.0
2015-Jul-03 14:33N 38°40' W 026°32'10 9.7
2015-Jul-03 13:34N 38°38' W 026°44'1410.2
2015-Jul-03 12:13N 38°36' W 027°01'6 9.1
2015-Jul-03 11:30N 38°34' W 027°09'9 9.5
2015-Jul-03 10:31N 38°32' W 027°21'9 9.8
2015-Jul-03 09:33N 38°30' W 027°32'10 9.5
2015-Jul-03 08:33N 38°29' W 027°44'10 9.7
2015-Jul-03 07:33N 38°31' W 027°56'1110.8
2015-Jul-03 06:33N 38°33' W 028°10'1110.6
2015-Jul-03 05:33N 38°35' W 028°23'9 8.8
2015-Jul-03 04:34N 38°33' W 028°34'3 2.8
2015-Jul-03 03:31N 38°32' W 028°37'0 0.0
2015-Jul-03 02:32N 38°32' W 028°37'0 0.0
2015-Jul-03 01:32N 38°32' W 028°37'0 0.0
2015-Jul-03 00:31N 38°32' W 028°37'0 0.0
2015-Jul-02 23:32N 38°32' W 028°37'0 0.0
2015-Jul-02 22:32N 38°32' W 028°37'0 0.0
2015-Jul-02 21:32N 38°32' W 028°37'0 0.3
2015-Jul-02 20:33N 38°32' W 028°37'7 6.5
2015-Jul-02 19:34N 38°35' W 028°30'8 7.9
2015-Jul-02 18:33N 38°35' W 028°20'8 7.9
2015-Jul-02 17:33N 38°33' W 028°10'8 7.6
2015-Jul-02 16:33N 38°31' W 028°00'7 7.5
2015-Jul-02 15:33N 38°30' W 027°51'7 7.1
2015-Jul-02 14:33N 38°29' W 027°42'7 6.6
2015-Jul-02 13:33N 38°29' W 027°34'7 7.0
2015-Jul-02 12:33N 38°31' W 027°25'10 7.2
2015-Jul-02 11:10N 38°33' W 027°12'5 7.2
2015-Jul-02 10:28N 38°35' W 027°07'7 7.0
2015-Jul-02 09:32N 38°39' W 027°00'5 1.1
2015-Jul-02 05:17N 38°43' W 027°03'1 0.1
2015-Jul-01 20:15N 38°43' W 027°03'21 4.3
2015-Jul-01 15:19N 38°29' W 026°44'6 8.1
2015-Jul-01 14:33N 38°24' W 026°38'8 8.1
2015-Jul-01 13:33N 38°19' W 026°31'8 8.3
2015-Jul-01 12:33N 38°13' W 026°23'8 8.4
2015-Jul-01 11:33N 38°07' W 026°16'8 8.3
2015-Jul-01 10:33N 38°01' W 026°08'8 8.1
2015-Jul-01 09:34N 37°55' W 026°01'8 8.2
2015-Jul-01 08:34N 37°49' W 025°54'8 7.9
2015-Jul-01 07:34N 37°44' W 025°47'6 5.7
2015-Jul-01 06:33N 37°44' W 025°40'0 0.3
2015-Jul-01 05:32N 37°44' W 025°40'0 0.0
2015-Jul-01 04:32N 37°44' W 025°40'0 0.0
2015-Jul-01 03:32N 37°44' W 025°40'0 0.0
2015-Jul-01 02:32N 37°44' W 025°40'0 0.0
2015-Jul-01 01:32N 37°44' W 025°40'0 0.0
2015-Jul-01 00:32N 37°44' W 025°40'0 0.0
2015-Jun-30 23:33N 37°44' W 025°40'0 0.0
2015-Jun-30 22:33N 37°44' W 025°40'0 0.0
2015-Jun-30 21:33N 37°44' W 025°40'0 0.0
2015-Jun-30 20:33N 37°44' W 025°40'0 0.0
2015-Jun-30 19:33N 37°44' W 025°40'0 0.0
2015-Jun-30 18:33N 37°44' W 025°40'0 0.0
2015-Jun-30 17:33N 37°44' W 025°40'0 0.0
2015-Jun-30 16:33N 37°44' W 025°40'0 0.0
2015-Jun-30 15:33N 37°44' W 025°40'0 0.0
2015-Jun-30 14:33N 37°44' W 025°40'0 0.0
2015-Jun-30 13:30N 37°44' W 025°40'0 0.0
2015-Jun-30 12:33N 37°44' W 025°40'0 0.0
2015-Jun-30 11:33N 37°44' W 025°40'0 0.1
2015-Jun-30 10:33N 37°44' W 025°40'1 1.2
2015-Jun-30 09:31N 37°44' W 025°38'0 0.0
2015-Jun-30 08:31N 37°44' W 025°38'0 0.0
2015-Jun-30 07:31N 37°44' W 025°38'0 0.0
2015-Jun-30 06:31N 37°44' W 025°38'0 0.0
2015-Jun-30 05:31N 37°44' W 025°38'0 0.0
2015-Jun-30 04:31N 37°44' W 025°38'0 0.0
2015-Jun-30 03:31N 37°44' W 025°38'0 0.0
2015-Jun-30 02:31N 37°44' W 025°38'0 0.0
2015-Jun-30 01:31N 37°44' W 025°38'0 0.0
2015-Jun-30 00:31N 37°44' W 025°38'0 0.0
2015-Jun-29 23:31N 37°44' W 025°38'0 0.0
2015-Jun-29 22:31N 37°44' W 025°38'0 0.0
2015-Jun-29 21:31N 37°44' W 025°38'0 0.0
2015-Jun-29 20:31N 37°44' W 025°38'0 0.0
2015-Jun-29 19:31N 37°44' W 025°38'0 0.1
2015-Jun-29 18:31N 37°44' W 025°38'0 0.0
2015-Jun-29 17:31N 37°44' W 025°38'5 4.7
2015-Jun-29 16:33N 37°42' W 025°34'9 8.6
2015-Jun-29 15:33N 37°41' W 025°23'9 9.0
2015-Jun-29 14:33N 37°40' W 025°11'9 8.8
2015-Jun-29 13:33N 37°40' W 025°00'9 8.7
2015-Jun-29 12:34N 37°41' W 024°49'8 8.3
2015-Jun-29 11:33N 37°41' W 024°39'8 8.4
2015-Jun-29 10:33N 37°41' W 024°28'9 8.8
2015-Jun-29 09:33N 37°41' W 024°17'9 8.8
2015-Jun-29 08:33N 37°41' W 024°06'9 9.0
2015-Jun-29 07:34N 37°41' W 023°55'9 8.8
2015-Jun-29 06:33N 37°42' W 023°44'73 8.7
2015-Jun-28 22:08N 37°43' W 022°11'362 8.9
2015-Jun-27 05:31N 37°49' W 014°33'57 9.3
2015-Jun-26 23:23N 37°50' W 013°20'64 8.8
2015-Jun-26 16:12N 37°51' W 011°60'6 9.5
2015-Jun-26 15:33N 37°51' W 011°52'12 9.7
2015-Jun-26 14:20N 37°51' W 011°37'28 9.5
2015-Jun-26 11:26N 37°51' W 011°02'8 9.4
2015-Jun-26 10:34N 37°52' W 010°52'13 9.5
2015-Jun-26 09:09N 37°52' W 010°35'6 9.5
2015-Jun-26 08:33N 37°52' W 010°28'9 9.3
2015-Jun-26 07:33N 37°52' W 010°16'9 9.5
2015-Jun-26 06:33N 37°53' W 010°04'9 9.2
2015-Jun-26 05:33N 37°52' W 009°52'9 9.4
2015-Jun-26 04:33N 37°52' W 009°41'9 9.2
2015-Jun-26 03:33N 37°53' W 009°29'9 9.1
2015-Jun-26 02:33N 37°52' W 009°17'9 9.5
2015-Jun-26 01:34N 37°53' W 009°06'10 9.7
2015-Jun-26 00:33N 37°55' W 008°54'2 1.7
2015-Jun-25 23:31N 37°57' W 008°53'0 0.0
2015-Jun-25 22:31N 37°57' W 008°53'0 0.0
2015-Jun-25 21:31N 37°57' W 008°53'0 0.0
2015-Jun-25 20:31N 37°57' W 008°53'0 0.0
2015-Jun-25 19:31N 37°57' W 008°53'0 0.0
2015-Jun-25 18:31N 37°57' W 008°53'0 0.0
2015-Jun-25 17:34N 37°57' W 008°53'0 0.0
2015-Jun-25 16:31N 37°57' W 008°53'0 0.0
2015-Jun-25 15:31N 37°57' W 008°53'0 0.0
2015-Jun-25 14:31N 37°57' W 008°53'0 0.0
2015-Jun-25 13:31N 37°57' W 008°53'0 0.0
2015-Jun-25 12:34N 37°57' W 008°53'0 0.0
2015-Jun-25 11:31N 37°57' W 008°53'0 0.0
2015-Jun-25 10:31N 37°57' W 008°53'0 0.0
2015-Jun-25 09:31N 37°57' W 008°53'0 0.0
2015-Jun-25 08:28N 37°57' W 008°53'0 0.0
2015-Jun-25 07:31N 37°57' W 008°53'0 0.0
2015-Jun-25 06:31N 37°57' W 008°53'0 0.0
2015-Jun-25 05:31N 37°57' W 008°53'0 0.0
2015-Jun-25 04:31N 37°57' W 008°53'0 0.0
2015-Jun-25 03:31N 37°57' W 008°53'0 0.0
2015-Jun-25 02:31N 37°57' W 008°53'0 0.0
2015-Jun-25 01:31N 37°57' W 008°53'2 2.1
2015-Jun-25 00:33N 37°56' W 008°55'9 9.5
2015-Jun-24 23:33N 38°02' W 009°04'1010.0
2015-Jun-24 22:33N 38°05' W 009°16'1110.2
2015-Jun-24 21:31N 38°09' W 009°29'1110.4
2015-Jun-24 20:27N 38°12' W 009°43'910.4
2015-Jun-24 19:33N 38°16' W 009°53'1010.0
2015-Jun-24 18:33N 38°20' W 010°05'2010.1
2015-Jun-24 16:32N 38°40' W 010°12'1010.6
2015-Jun-24 15:33N 38°50' W 010°12'1110.6
2015-Jun-24 14:32N 39°01' W 010°11'1110.5
2015-Jun-24 13:32N 39°10' W 010°05'  

Dump ship's entire track history